sensor_id;sensor_type;location;lat;lon;timestamp;pressure;altitude;pressure_sealevel;temperature;humidity
63883;BME280;50047;50.596;30.466;2022-08-03T00:02:18;99028.88;;;24.67;60.83
63883;BME280;50047;50.596;30.466;2022-08-03T00:04:45;99030.67;;;24.37;61.11
63883;BME280;50047;50.596;30.466;2022-08-03T00:07:13;99030.26;;;24.62;60.68
63883;BME280;50047;50.596;30.466;2022-08-03T00:09:41;99025.77;;;24.93;59.89
63883;BME280;50047;50.596;30.466;2022-08-03T00:12:09;99031.31;;;24.88;59.52
63883;BME280;50047;50.596;30.466;2022-08-03T00:14:36;99041.13;;;24.57;59.56
63883;BME280;50047;50.596;30.466;2022-08-03T00:17:03;99026.45;;;24.32;60.29
63883;BME280;50047;50.596;30.466;2022-08-03T00:19:30;99006.80;;;24.69;60.11
63883;BME280;50047;50.596;30.466;2022-08-03T00:21:57;99012.16;;;24.97;58.78
63883;BME280;50047;50.596;30.466;2022-08-03T00:24:25;99024.51;;;24.72;58.94
63883;BME280;50047;50.596;30.466;2022-08-03T00:26:52;99028.81;;;24.58;59.15
63883;BME280;50047;50.596;30.466;2022-08-03T00:29:19;99026.11;;;24.45;59.55
63883;BME280;50047;50.596;30.466;2022-08-03T00:31:47;99024.41;;;24.43;59.69
63883;BME280;50047;50.596;30.466;2022-08-03T00:34:24;99024.40;;;24.64;59.03
63883;BME280;50047;50.596;30.466;2022-08-03T00:37:12;99025.79;;;24.55;59.22
63883;BME280;50047;50.596;30.466;2022-08-03T00:39:39;99034.25;;;24.38;59.37
63883;BME280;50047;50.596;30.466;2022-08-03T00:42:06;99020.10;;;24.28;59.73
63883;BME280;50047;50.596;30.466;2022-08-03T00:44:44;99015.38;;;24.04;60.41
63883;BME280;50047;50.596;30.466;2022-08-03T00:47:11;99027.63;;;24.44;60.02
63883;BME280;50047;50.596;30.466;2022-08-03T00:49:40;99010.59;;;24.57;59.32
63883;BME280;50047;50.596;30.466;2022-08-03T00:52:09;99008.27;;;24.46;59.35
63883;BME280;50047;50.596;30.466;2022-08-03T00:54:37;99005.50;;;24.19;59.98
63883;BME280;50047;50.596;30.466;2022-08-03T00:57:04;99017.48;;;24.06;60.44
63883;BME280;50047;50.596;30.466;2022-08-03T00:59:32;99018.06;;;24.48;60.00
63883;BME280;50047;50.596;30.466;2022-08-03T01:02:00;99028.58;;;24.73;59.04
63883;BME280;50047;50.596;30.466;2022-08-03T01:04:28;99018.94;;;24.72;58.77
63883;BME280;50047;50.596;30.466;2022-08-03T01:07:18;99018.92;;;24.45;59.18
63883;BME280;50047;50.596;30.466;2022-08-03T01:09:59;99020.94;;;24.07;60.26
63883;BME280;50047;50.596;30.466;2022-08-03T01:15:27;99041.84;;;24.49;59.54
63883;BME280;50047;50.596;30.466;2022-08-03T01:18:06;99007.92;;;24.43;59.67
63883;BME280;50047;50.596;30.466;2022-08-03T01:20:40;99028.79;;;24.18;60.00
63883;BME280;50047;50.596;30.466;2022-08-03T01:26:41;99029.16;;;24.50;59.98
63883;BME280;50047;50.596;30.466;2022-08-03T01:32:19;99041.60;;;24.31;60.04
63883;BME280;50047;50.596;30.466;2022-08-03T01:35:12;99037.21;;;24.18;60.50
63883;BME280;50047;50.596;30.466;2022-08-03T01:37:53;99034.80;;;24.15;60.95
63883;BME280;50047;50.596;30.466;2022-08-03T01:40:24;99034.99;;;24.64;60.34
63883;BME280;50047;50.596;30.466;2022-08-03T01:42:54;99030.27;;;24.84;59.28
63883;BME280;50047;50.596;30.466;2022-08-03T01:45:23;99029.23;;;24.86;58.87
63883;BME280;50047;50.596;30.466;2022-08-03T01:47:52;99042.95;;;24.63;59.12
63883;BME280;50047;50.596;30.466;2022-08-03T01:50:28;99033.70;;;24.34;59.76
63883;BME280;50047;50.596;30.466;2022-08-03T01:52:56;99041.70;;;24.61;59.27
63883;BME280;50047;50.596;30.466;2022-08-03T01:55:25;99032.35;;;24.74;58.98
63883;BME280;50047;50.596;30.466;2022-08-03T01:57:56;99029.54;;;24.66;58.40
63883;BME280;50047;50.596;30.466;2022-08-03T02:00:34;99027.08;;;24.27;59.12
63883;BME280;50047;50.596;30.466;2022-08-03T02:03:04;99033.15;;;23.95;60.07
63883;BME280;50047;50.596;30.466;2022-08-03T02:05:33;99031.35;;;24.31;59.74
63883;BME280;50047;50.596;30.466;2022-08-03T02:08:02;99019.84;;;24.59;58.77
63883;BME280;50047;50.596;30.466;2022-08-03T02:10:31;99024.44;;;24.33;58.97
63883;BME280;50047;50.596;30.466;2022-08-03T02:13:04;99022.95;;;23.98;59.72
63883;BME280;50047;50.596;30.466;2022-08-03T02:15:33;99032.18;;;23.81;60.17
63883;BME280;50047;50.596;30.466;2022-08-03T02:18:04;99032.59;;;24.08;60.09
63883;BME280;50047;50.596;30.466;2022-08-03T02:20:32;99025.13;;;24.27;59.45
63883;BME280;50047;50.596;30.466;2022-08-03T02:23:02;99031.50;;;24.22;59.46
63883;BME280;50047;50.596;30.466;2022-08-03T02:25:31;99030.05;;;24.11;59.40
63883;BME280;50047;50.596;30.466;2022-08-03T02:28:10;99028.71;;;23.91;59.85
63883;BME280;50047;50.596;30.466;2022-08-03T02:30:43;99028.25;;;24.11;59.64
63883;BME280;50047;50.596;30.466;2022-08-03T02:33:20;99020.74;;;24.36;59.40
63883;BME280;50047;50.596;30.466;2022-08-03T02:35:51;99024.67;;;24.30;59.17
63883;BME280;50047;50.596;30.466;2022-08-03T02:38:22;99022.76;;;24.17;59.28
63883;BME280;50047;50.596;30.466;2022-08-03T02:40:54;99024.52;;;23.91;59.97
63883;BME280;50047;50.596;30.466;2022-08-03T02:43:23;99026.17;;;24.19;60.15
63883;BME280;50047;50.596;30.466;2022-08-03T02:45:53;99027.65;;;24.40;59.57
63883;BME280;50047;50.596;30.466;2022-08-03T02:48:23;99036.89;;;24.50;58.90
63883;BME280;50047;50.596;30.466;2022-08-03T02:50:53;99035.95;;;24.42;58.94
63883;BME280;50047;50.596;30.466;2022-08-03T02:53:26;99036.77;;;24.23;59.31
63883;BME280;50047;50.596;30.466;2022-08-03T02:55:56;99029.63;;;23.93;60.47
63883;BME280;50047;50.596;30.466;2022-08-03T02:58:24;99029.52;;;24.30;60.39
63883;BME280;50047;50.596;30.466;2022-08-03T03:00:52;99035.10;;;24.55;59.44
63883;BME280;50047;50.596;30.466;2022-08-03T03:03:21;99044.65;;;24.60;59.19
63883;BME280;50047;50.596;30.466;2022-08-03T03:05:51;99038.27;;;24.58;58.66
63883;BME280;50047;50.596;30.466;2022-08-03T03:08:24;99037.14;;;24.20;59.30
63883;BME280;50047;50.596;30.466;2022-08-03T03:10:59;99032.61;;;24.01;59.85
63883;BME280;50047;50.596;30.466;2022-08-03T03:13:29;99028.89;;;24.30;59.59
63883;BME280;50047;50.596;30.466;2022-08-03T03:15:59;99030.10;;;24.45;59.05
63883;BME280;50047;50.596;30.466;2022-08-03T03:18:28;99028.00;;;24.43;58.79
63883;BME280;50047;50.596;30.466;2022-08-03T03:20:58;99034.63;;;24.15;59.16
63883;BME280;50047;50.596;30.466;2022-08-03T03:23:27;99035.46;;;24.07;59.31
63883;BME280;50047;50.596;30.466;2022-08-03T03:25:55;99035.75;;;23.91;59.95
63883;BME280;50047;50.596;30.466;2022-08-03T03:28:24;99038.50;;;24.32;59.77
63883;BME280;50047;50.596;30.466;2022-08-03T03:30:52;99038.09;;;24.63;58.92
63883;BME280;50047;50.596;30.466;2022-08-03T03:33:21;99043.84;;;24.64;58.60
63883;BME280;50047;50.596;30.466;2022-08-03T03:35:49;99045.94;;;24.49;58.63
63883;BME280;50047;50.596;30.466;2022-08-03T03:38:18;99040.83;;;24.43;58.69
63883;BME280;50047;50.596;30.466;2022-08-03T03:40:46;99038.91;;;24.17;59.40
63883;BME280;50047;50.596;30.466;2022-08-03T03:43:13;99041.95;;;24.38;59.27
63883;BME280;50047;50.596;30.466;2022-08-03T03:45:41;99042.15;;;24.62;58.51
63883;BME280;50047;50.596;30.466;2022-08-03T03:48:09;99050.69;;;24.63;58.30
63883;BME280;50047;50.596;30.466;2022-08-03T03:50:37;99055.58;;;24.48;58.63
63883;BME280;50047;50.596;30.466;2022-08-03T03:53:10;99046.09;;;24.49;58.73
63883;BME280;50047;50.596;30.466;2022-08-03T03:55:39;99049.71;;;24.45;59.39
63883;BME280;50047;50.596;30.466;2022-08-03T03:58:27;99054.88;;;25.01;58.34
63883;BME280;50047;50.596;30.466;2022-08-03T04:00:54;99057.73;;;25.08;57.76
63883;BME280;50047;50.596;30.466;2022-08-03T04:03:21;99070.41;;;25.03;57.72
63883;BME280;50047;50.596;30.466;2022-08-03T04:05:49;99074.25;;;24.88;57.83
63883;BME280;50047;50.596;30.466;2022-08-03T04:08:35;99075.80;;;24.55;58.92
63883;BME280;50047;50.596;30.466;2022-08-03T04:11:40;99069.39;;;25.10;58.27
63883;BME280;50047;50.596;30.466;2022-08-03T04:14:18;99075.77;;;25.35;57.65
63883;BME280;50047;50.596;30.466;2022-08-03T04:17:00;99072.04;;;25.36;57.29
63883;BME280;50047;50.596;30.466;2022-08-03T04:19:37;99074.30;;;25.18;57.44
63883;BME280;50047;50.596;30.466;2022-08-03T04:22:09;99080.05;;;24.96;57.90
63883;BME280;50047;50.596;30.466;2022-08-03T04:24:41;99075.92;;;25.47;57.49
63883;BME280;50047;50.596;30.466;2022-08-03T04:27:12;99083.48;;;25.60;56.45
63883;BME280;50047;50.596;30.466;2022-08-03T04:29:46;99079.39;;;25.67;56.28
63883;BME280;50047;50.596;30.466;2022-08-03T04:32:15;99077.95;;;25.50;56.72
63883;BME280;50047;50.596;30.466;2022-08-03T04:34:43;99088.08;;;25.45;56.85
63883;BME280;50047;50.596;30.466;2022-08-03T04:37:13;99092.24;;;25.49;57.13
63883;BME280;50047;50.596;30.466;2022-08-03T04:39:46;99081.98;;;26.39;54.82
63883;BME280;50047;50.596;30.466;2022-08-03T04:42:15;99076.02;;;27.62;52.05
63883;BME280;50047;50.596;30.466;2022-08-03T04:44:47;99085.16;;;28.53;49.96
63883;BME280;50047;50.596;30.466;2022-08-03T04:47:15;99079.55;;;29.04;48.51
63883;BME280;50047;50.596;30.466;2022-08-03T04:49:43;99088.82;;;29.34;47.79
63883;BME280;50047;50.596;30.466;2022-08-03T04:52:10;99087.37;;;29.33;47.77
63883;BME280;50047;50.596;30.466;2022-08-03T04:54:41;99090.30;;;29.39;47.87
63883;BME280;50047;50.596;30.466;2022-08-03T04:57:16;99094.88;;;29.25;47.45
63883;BME280;50047;50.596;30.466;2022-08-03T04:59:50;99090.70;;;29.23;48.06
63883;BME280;50047;50.596;30.466;2022-08-03T05:02:29;99080.30;;;28.77;48.20
63883;BME280;50047;50.596;30.466;2022-08-03T05:04:58;99074.71;;;28.96;48.21
63883;BME280;50047;50.596;30.466;2022-08-03T05:07:25;99086.60;;;28.97;47.95
63883;BME280;50047;50.596;30.466;2022-08-03T05:10:04;99082.58;;;28.91;47.87
63883;BME280;50047;50.596;30.466;2022-08-03T05:12:43;99086.03;;;29.01;47.69
63883;BME280;50047;50.596;30.466;2022-08-03T05:15:11;99096.73;;;29.44;46.88
63883;BME280;50047;50.596;30.466;2022-08-03T05:17:39;99089.17;;;29.73;46.25
63883;BME280;50047;50.596;30.466;2022-08-03T05:20:07;99092.63;;;29.79;45.87
63883;BME280;50047;50.596;30.466;2022-08-03T05:22:34;99081.33;;;30.02;45.53
63883;BME280;50047;50.596;30.466;2022-08-03T05:25:02;99083.39;;;30.10;45.67
63883;BME280;50047;50.596;30.466;2022-08-03T05:27:30;99093.94;;;30.40;44.86
63883;BME280;50047;50.596;30.466;2022-08-03T05:29:57;99088.14;;;30.04;45.18
63883;BME280;50047;50.596;30.466;2022-08-03T05:32:44;99097.56;;;30.03;45.75
63883;BME280;50047;50.596;30.466;2022-08-03T05:35:12;99105.73;;;29.81;45.77
63883;BME280;50047;50.596;30.466;2022-08-03T05:38:01;99107.20;;;29.27;46.80
63883;BME280;50047;50.596;30.466;2022-08-03T05:40:29;99111.52;;;28.82;47.78
63883;BME280;50047;50.596;30.466;2022-08-03T05:42:57;99107.86;;;28.43;48.51
63883;BME280;50047;50.596;30.466;2022-08-03T05:45:24;99103.44;;;28.16;49.23
63883;BME280;50047;50.596;30.466;2022-08-03T05:47:54;99103.17;;;28.27;48.96
63883;BME280;50047;50.596;30.466;2022-08-03T05:50:22;99100.91;;;28.15;49.12
63883;BME280;50047;50.596;30.466;2022-08-03T05:52:49;99099.76;;;27.93;49.62
63883;BME280;50047;50.596;30.466;2022-08-03T05:55:17;99097.30;;;27.72;50.23
63883;BME280;50047;50.596;30.466;2022-08-03T05:57:45;99101.30;;;27.61;50.80
63883;BME280;50047;50.596;30.466;2022-08-03T06:00:15;99109.33;;;27.97;50.50
63883;BME280;50047;50.596;30.466;2022-08-03T06:02:43;99099.71;;;28.15;50.37
63883;BME280;50047;50.596;30.466;2022-08-03T06:05:10;99101.23;;;28.29;49.82
63883;BME280;50047;50.596;30.466;2022-08-03T06:07:37;99111.20;;;28.32;49.51
63883;BME280;50047;50.596;30.466;2022-08-03T06:10:05;99102.29;;;28.57;49.02
63883;BME280;50047;50.596;30.466;2022-08-03T06:12:53;99104.01;;;28.83;48.53
63883;BME280;50047;50.596;30.466;2022-08-03T06:15:20;99103.43;;;29.12;47.94
63883;BME280;50047;50.596;30.466;2022-08-03T06:17:49;99120.50;;;29.36;46.95
63883;BME280;50047;50.596;30.466;2022-08-03T06:20:19;99120.77;;;29.25;47.17
63883;BME280;50047;50.596;30.466;2022-08-03T06:22:47;99120.85;;;29.52;46.74
63883;BME280;50047;50.596;30.466;2022-08-03T06:25:26;99113.55;;;30.04;45.60
63883;BME280;50047;50.596;30.466;2022-08-03T06:27:53;99119.23;;;30.47;44.98
63883;BME280;50047;50.596;30.466;2022-08-03T06:30:20;99112.45;;;30.22;45.48
63883;BME280;50047;50.596;30.466;2022-08-03T06:32:48;99118.19;;;30.67;44.80
63883;BME280;50047;50.596;30.466;2022-08-03T06:35:18;99116.98;;;30.82;44.03
63883;BME280;50047;50.596;30.466;2022-08-03T06:37:47;99109.25;;;31.03;43.90
63883;BME280;50047;50.596;30.466;2022-08-03T06:40:20;99117.61;;;30.50;44.74
63883;BME280;50047;50.596;30.466;2022-08-03T06:43:01;99109.45;;;30.23;45.08
63883;BME280;50047;50.596;30.466;2022-08-03T06:45:29;99109.30;;;30.24;45.23
63883;BME280;50047;50.596;30.466;2022-08-03T06:48:03;99116.83;;;31.38;43.39
63883;BME280;50047;50.596;30.466;2022-08-03T06:50:31;99109.69;;;32.17;41.87
63883;BME280;50047;50.596;30.466;2022-08-03T06:53:00;99112.61;;;32.48;40.99
63883;BME280;50047;50.596;30.466;2022-08-03T06:55:28;99099.66;;;32.21;41.04
63883;BME280;50047;50.596;30.466;2022-08-03T06:57:55;99121.15;;;31.48;42.45
63883;BME280;50047;50.596;30.466;2022-08-03T07:00:29;99104.17;;;31.09;43.34
63883;BME280;50047;50.596;30.466;2022-08-03T07:02:57;99104.53;;;30.76;43.61
63883;BME280;50047;50.596;30.466;2022-08-03T07:05:24;99111.13;;;30.31;44.50
63883;BME280;50047;50.596;30.466;2022-08-03T07:07:55;99114.39;;;29.94;45.55
63883;BME280;50047;50.596;30.466;2022-08-03T07:10:27;99125.20;;;29.58;46.10
63883;BME280;50047;50.596;30.466;2022-08-03T07:12:55;99126.58;;;29.50;46.52
63883;BME280;50047;50.596;30.466;2022-08-03T07:15:23;99118.32;;;29.38;46.74
63883;BME280;50047;50.596;30.466;2022-08-03T07:18:10;99115.70;;;29.32;46.98
63883;BME280;50047;50.596;30.466;2022-08-03T07:20:38;99112.54;;;29.20;47.31
63883;BME280;50047;50.596;30.466;2022-08-03T07:23:05;99123.48;;;29.11;47.56
63883;BME280;50047;50.596;30.466;2022-08-03T07:25:32;99120.25;;;28.86;47.92
63883;BME280;50047;50.596;30.466;2022-08-03T07:27:59;99124.06;;;28.58;48.62
63883;BME280;50047;50.596;30.466;2022-08-03T07:30:27;99122.27;;;28.44;48.82
63883;BME280;50047;50.596;30.466;2022-08-03T07:32:54;99128.05;;;28.18;49.81
63883;BME280;50047;50.596;30.466;2022-08-03T07:35:21;99139.22;;;27.92;50.46
63883;BME280;50047;50.596;30.466;2022-08-03T07:37:52;99137.40;;;28.03;51.46
63883;BME280;50047;50.596;30.466;2022-08-03T07:40:21;99135.10;;;28.54;50.19
63883;BME280;50047;50.596;30.466;2022-08-03T07:42:48;99136.06;;;28.82;49.41
63883;BME280;50047;50.596;30.466;2022-08-03T07:45:19;99142.06;;;28.84;49.02
63883;BME280;50047;50.596;30.466;2022-08-03T07:47:49;99152.28;;;28.66;49.41
63883;BME280;50047;50.596;30.466;2022-08-03T07:50:19;99156.38;;;28.53;49.77
63883;BME280;50047;50.596;30.466;2022-08-03T07:52:47;99134.92;;;28.36;49.62
63883;BME280;50047;50.596;30.466;2022-08-03T07:55:21;99133.41;;;28.31;49.85
63883;BME280;50047;50.596;30.466;2022-08-03T08:00:26;99149.33;;;28.02;51.43
63883;BME280;50047;50.596;30.466;2022-08-03T08:02:53;99153.91;;;28.56;50.81
63883;BME280;50047;50.596;30.466;2022-08-03T08:05:20;99150.02;;;28.99;49.55
63883;BME280;50047;50.596;30.466;2022-08-03T08:07:47;99157.72;;;29.11;49.37
63883;BME280;50047;50.596;30.466;2022-08-03T08:10:17;99169.28;;;28.83;50.13
63883;BME280;50047;50.596;30.466;2022-08-03T08:12:45;99169.98;;;28.65;50.39
63883;BME280;50047;50.596;30.466;2022-08-03T08:15:13;99173.36;;;28.57;50.51
63883;BME280;50047;50.596;30.466;2022-08-03T08:17:45;99184.16;;;28.38;50.54
63883;BME280;50047;50.596;30.466;2022-08-03T08:20:20;99175.51;;;28.21;50.90
63883;BME280;50047;50.596;30.466;2022-08-03T08:23:02;99190.05;;;27.81;51.85
63883;BME280;50047;50.596;30.466;2022-08-03T08:25:51;99195.16;;;28.22;51.21
63883;BME280;50047;50.596;30.466;2022-08-03T08:28:20;99187.71;;;28.73;50.20
63883;BME280;50047;50.596;30.466;2022-08-03T08:31:00;99193.36;;;29.02;48.83
63883;BME280;50047;50.596;30.466;2022-08-03T08:33:27;99189.98;;;29.17;48.20
63883;BME280;50047;50.596;30.466;2022-08-03T08:36:13;99200.89;;;29.01;48.32
63883;BME280;50047;50.596;30.466;2022-08-03T08:38:42;99183.23;;;29.03;48.30
63883;BME280;50047;50.596;30.466;2022-08-03T08:41:12;99194.52;;;29.11;48.67
63883;BME280;50047;50.596;30.466;2022-08-03T08:43:40;99193.24;;;29.14;48.62
63883;BME280;50047;50.596;30.466;2022-08-03T08:46:12;99196.84;;;29.27;48.10
63883;BME280;50047;50.596;30.466;2022-08-03T08:48:50;99198.67;;;29.48;47.32
63883;BME280;50047;50.596;30.466;2022-08-03T08:51:21;99202.11;;;29.32;47.97
63883;BME280;50047;50.596;30.466;2022-08-03T08:53:51;99188.57;;;29.45;47.75
63883;BME280;50047;50.596;30.466;2022-08-03T08:56:19;99196.94;;;29.53;48.02
63883;BME280;50047;50.596;30.466;2022-08-03T08:58:59;99193.33;;;29.54;48.07
63883;BME280;50047;50.596;30.466;2022-08-03T09:01:26;99201.77;;;29.30;48.30
63883;BME280;50047;50.596;30.466;2022-08-03T09:03:54;99204.17;;;29.28;48.07
63883;BME280;50047;50.596;30.466;2022-08-03T09:06:23;99198.01;;;29.31;48.17
63883;BME280;50047;50.596;30.466;2022-08-03T09:08:50;99200.27;;;29.55;47.57
63883;BME280;50047;50.596;30.466;2022-08-03T09:11:21;99204.71;;;29.73;47.65
63883;BME280;50047;50.596;30.466;2022-08-03T09:14:10;99194.47;;;30.47;46.50
63883;BME280;50047;50.596;30.466;2022-08-03T09:16:58;99193.92;;;30.77;45.52
63883;BME280;50047;50.596;30.466;2022-08-03T09:19:29;99182.88;;;30.76;45.78
63883;BME280;50047;50.596;30.466;2022-08-03T09:22:13;99179.59;;;30.98;45.44
63883;BME280;50047;50.596;30.466;2022-08-03T09:24:59;99196.70;;;31.04;45.29
63883;BME280;50047;50.596;30.466;2022-08-03T09:27:46;99197.23;;;30.77;45.65
63883;BME280;50047;50.596;30.466;2022-08-03T09:30:18;99210.23;;;30.34;46.59
63883;BME280;50047;50.596;30.466;2022-08-03T09:33:06;99192.02;;;29.77;47.80
63883;BME280;50047;50.596;30.466;2022-08-03T09:35:46;99207.19;;;29.45;48.63
63883;BME280;50047;50.596;30.466;2022-08-03T09:38:24;99208.97;;;28.66;53.04
63883;BME280;50047;50.596;30.466;2022-08-03T09:40:55;99210.61;;;27.67;56.36
63883;BME280;50047;50.596;30.466;2022-08-03T09:43:27;99218.21;;;27.53;57.69
63883;BME280;50047;50.596;30.466;2022-08-03T09:46:04;99223.49;;;27.47;58.30
63883;BME280;50047;50.596;30.466;2022-08-03T09:48:33;99214.83;;;26.86;61.07
63883;BME280;50047;50.596;30.466;2022-08-03T09:51:04;99209.76;;;26.50;61.61
63883;BME280;50047;50.596;30.466;2022-08-03T09:53:51;99210.44;;;26.20;63.60
63883;BME280;50047;50.596;30.466;2022-08-03T09:56:43;99206.30;;;26.72;63.44
63883;BME280;50047;50.596;30.466;2022-08-03T09:59:12;99212.69;;;27.03;62.06
63883;BME280;50047;50.596;30.466;2022-08-03T10:01:40;99216.69;;;27.16;61.35
63883;BME280;50047;50.596;30.466;2022-08-03T10:06:13;99204.05;;;26.80;62.16
63883;BME280;50047;50.596;30.466;2022-08-03T10:08:41;99205.36;;;27.84;59.46
63883;BME280;50047;50.596;30.466;2022-08-03T10:11:08;99208.79;;;28.39;57.93
63883;BME280;50047;50.596;30.466;2022-08-03T10:13:36;99200.95;;;28.73;57.13
63883;BME280;50047;50.596;30.466;2022-08-03T10:16:04;99202.23;;;28.78;56.26
63883;BME280;50047;50.596;30.466;2022-08-03T10:18:50;99208.83;;;28.70;55.64
63883;BME280;50047;50.596;30.466;2022-08-03T10:21:18;99206.17;;;28.79;56.18
63883;BME280;50047;50.596;30.466;2022-08-03T10:23:46;99211.87;;;29.13;54.79
63883;BME280;50047;50.596;30.466;2022-08-03T10:26:17;99211.03;;;29.38;54.46
63883;BME280;50047;50.596;30.466;2022-08-03T10:28:49;99209.20;;;29.42;54.73
63883;BME280;50047;50.596;30.466;2022-08-03T10:31:21;99212.80;;;29.12;54.69
63883;BME280;50047;50.596;30.466;2022-08-03T10:33:50;99207.92;;;28.68;55.34
63883;BME280;50047;50.596;30.466;2022-08-03T10:36:22;99210.70;;;28.77;54.39
63883;BME280;50047;50.596;30.466;2022-08-03T10:38:51;99203.27;;;28.84;52.35
63883;BME280;50047;50.596;30.466;2022-08-03T10:41:21;99192.70;;;28.54;51.82
63883;BME280;50047;50.596;30.466;2022-08-03T10:43:54;99202.34;;;28.20;52.73
63883;BME280;50047;50.596;30.466;2022-08-03T10:46:23;99195.23;;;28.03;53.92
63883;BME280;50047;50.596;30.466;2022-08-03T10:48:52;99200.52;;;27.94;55.54
63883;BME280;50047;50.596;30.466;2022-08-03T10:51:20;99193.40;;;28.24;55.82
63883;BME280;50047;50.596;30.466;2022-08-03T10:53:48;99194.50;;;28.48;55.34
63883;BME280;50047;50.596;30.466;2022-08-03T11:02:15;99183.61;;;28.59;56.13
63883;BME280;50047;50.596;30.466;2022-08-03T11:04:43;99190.34;;;28.61;56.23
63883;BME280;50047;50.596;30.466;2022-08-03T11:07:21;99187.38;;;29.21;55.42
63883;BME280;50047;50.596;30.466;2022-08-03T11:09:51;99186.96;;;29.65;53.93
63883;BME280;50047;50.596;30.466;2022-08-03T11:12:29;99187.75;;;29.77;54.59
63883;BME280;50047;50.596;30.466;2022-08-03T11:15:00;99184.28;;;29.71;54.98
63883;BME280;50047;50.596;30.466;2022-08-03T11:17:28;99186.85;;;29.42;54.58
63883;BME280;50047;50.596;30.466;2022-08-03T11:19:56;99172.02;;;29.40;55.16
63883;BME280;50047;50.596;30.466;2022-08-03T11:22:25;99189.22;;;29.53;53.51
63883;BME280;50047;50.596;30.466;2022-08-03T11:25:13;99175.36;;;29.69;53.43
63883;BME280;50047;50.596;30.466;2022-08-03T11:28:24;99174.98;;;29.37;52.66
63883;BME280;50047;50.596;30.466;2022-08-03T11:30:52;99176.65;;;29.19;53.92
63883;BME280;50047;50.596;30.466;2022-08-03T11:33:30;99175.78;;;28.95;54.55
63883;BME280;50047;50.596;30.466;2022-08-03T11:35:59;99159.95;;;29.49;53.53
63883;BME280;50047;50.596;30.466;2022-08-03T11:38:27;99168.05;;;29.88;52.43
63883;BME280;50047;50.596;30.466;2022-08-03T11:40:55;99169.86;;;30.19;51.88
63883;BME280;50047;50.596;30.466;2022-08-03T11:46:08;99171.56;;;30.16;52.11
63883;BME280;50047;50.596;30.466;2022-08-03T11:49:02;99173.54;;;29.98;51.38
63883;BME280;50047;50.596;30.466;2022-08-03T11:51:35;99178.16;;;29.85;52.49
63883;BME280;50047;50.596;30.466;2022-08-03T11:54:05;99179.05;;;29.85;52.36
63883;BME280;50047;50.596;30.466;2022-08-03T11:56:52;99177.38;;;29.79;51.83
63883;BME280;50047;50.596;30.466;2022-08-03T11:59:31;99179.42;;;29.45;54.79
63883;BME280;50047;50.596;30.466;2022-08-03T12:02:11;99185.65;;;28.75;56.47
63883;BME280;50047;50.596;30.466;2022-08-03T12:05:08;99174.33;;;28.26;59.46
63883;BME280;50047;50.596;30.466;2022-08-03T12:07:44;99161.90;;;27.65;61.85
63883;BME280;50047;50.596;30.466;2022-08-03T12:10:32;99163.96;;;28.02;60.90
63883;BME280;50047;50.596;30.466;2022-08-03T12:13:01;99159.36;;;28.36;59.55
63883;BME280;50047;50.596;30.466;2022-08-03T12:15:30;99154.19;;;28.32;58.68
63883;BME280;50047;50.596;30.466;2022-08-03T12:18:09;99162.58;;;28.28;58.62
63883;BME280;50047;50.596;30.466;2022-08-03T12:20:38;99160.78;;;28.08;58.96
63883;BME280;50047;50.596;30.466;2022-08-03T12:23:07;99166.33;;;28.68;57.97
63883;BME280;50047;50.596;30.466;2022-08-03T12:25:37;99161.66;;;29.12;56.28
63883;BME280;50047;50.596;30.466;2022-08-03T12:28:32;99171.30;;;29.14;55.77
63883;BME280;50047;50.596;30.466;2022-08-03T12:31:07;99163.61;;;28.97;55.99
63883;BME280;50047;50.596;30.466;2022-08-03T12:36:33;99169.39;;;28.22;56.77
63883;BME280;50047;50.596;30.466;2022-08-03T12:39:07;99174.08;;;28.16;56.05
63883;BME280;50047;50.596;30.466;2022-08-03T12:41:36;99164.57;;;28.16;56.40
63883;BME280;50047;50.596;30.466;2022-08-03T12:44:05;99173.16;;;28.03;56.54
63883;BME280;50047;50.596;30.466;2022-08-03T12:49:09;99158.55;;;28.18;56.33
63883;BME280;50047;50.596;30.466;2022-08-03T12:54:28;99150.55;;;27.84;54.90
63883;BME280;50047;50.596;30.466;2022-08-03T12:59:33;99164.05;;;27.52;55.33
63883;BME280;50047;50.596;30.466;2022-08-03T13:02:17;99149.05;;;27.66;55.86
63883;BME280;50047;50.596;30.466;2022-08-03T13:04:46;99148.61;;;28.12;54.67
63883;BME280;50047;50.596;30.466;2022-08-03T13:07:14;99143.95;;;28.44;54.33
63883;BME280;50047;50.596;30.466;2022-08-03T13:12:17;99145.70;;;28.45;54.65
63883;BME280;50047;50.596;30.466;2022-08-03T13:14:53;99146.86;;;28.43;55.03
63883;BME280;50047;50.596;30.466;2022-08-03T13:17:21;99143.70;;;28.92;54.44
63883;BME280;50047;50.596;30.466;2022-08-03T13:19:49;99147.77;;;29.30;52.88
63883;BME280;50047;50.596;30.466;2022-08-03T13:22:18;99157.13;;;29.49;53.05
63883;BME280;50047;50.596;30.466;2022-08-03T13:24:47;99167.90;;;29.38;52.12
63883;BME280;50047;50.596;30.466;2022-08-03T13:27:15;99172.47;;;29.32;53.26
63883;BME280;50047;50.596;30.466;2022-08-03T13:30:03;99165.06;;;29.19;53.81
63883;BME280;50047;50.596;30.466;2022-08-03T13:32:32;99151.20;;;29.59;52.66
63883;BME280;50047;50.596;30.466;2022-08-03T13:35:00;99151.14;;;29.72;51.55
63883;BME280;50047;50.596;30.466;2022-08-03T13:37:29;99155.18;;;29.81;51.77
63883;BME280;50047;50.596;30.466;2022-08-03T13:39:59;99163.27;;;29.72;52.01
63883;BME280;50047;50.596;30.466;2022-08-03T13:42:32;99182.55;;;29.59;52.34
63883;BME280;50047;50.596;30.466;2022-08-03T13:45:00;99195.91;;;29.33;53.31
63883;BME280;50047;50.596;30.466;2022-08-03T13:47:28;99193.64;;;29.69;53.06
63883;BME280;50047;50.596;30.466;2022-08-03T13:49:55;99200.40;;;30.01;53.23
63883;BME280;50047;50.596;30.466;2022-08-03T13:52:32;99198.02;;;30.01;53.56